createdAt,value
2023-02-05T00:02:10.519Z,104.97
2023-02-05T00:04:38.379Z,95.37
2023-02-05T00:07:06.604Z,90.77
2023-02-05T00:09:34.329Z,93.13
2023-02-05T00:12:02.206Z,88.87
2023-02-05T00:14:29.906Z,71.10
2023-02-05T00:16:57.881Z,56.30
2023-02-05T00:19:25.513Z,71.10
2023-02-05T00:21:53.408Z,68.33
2023-02-05T00:24:21.047Z,70.47
2023-02-05T00:26:48.948Z,65.27
2023-02-05T00:29:16.614Z,56.40
2023-02-05T00:31:44.647Z,60.50
2023-02-05T00:34:18.297Z,61.57
2023-02-05T00:36:53.848Z,63.30
2023-02-05T00:39:23.373Z,94.10
2023-02-05T00:41:52.689Z,92.47
2023-02-05T00:44:20.308Z,82.27
2023-02-05T00:46:48.476Z,70.87
2023-02-05T00:49:16.076Z,62.67
2023-02-05T00:51:44.130Z,49.67
2023-02-05T00:54:11.895Z,47.50
2023-02-05T00:56:39.895Z,50.43
2023-02-05T00:59:08.171Z,42.80
2023-02-05T01:01:36.110Z,35.83
2023-02-05T01:04:03.795Z,41.33
2023-02-05T01:06:31.798Z,34.87
2023-02-05T01:08:59.424Z,36.00
2023-02-05T01:11:27.416Z,31.73
2023-02-05T01:13:55.193Z,34.97
2023-02-05T01:16:23.332Z,37.60
2023-02-05T01:18:50.903Z,34.70
2023-02-05T01:21:19.198Z,31.03
2023-02-05T01:23:46.753Z,28.60
2023-02-05T01:26:14.755Z,27.53
2023-02-05T01:28:43.643Z,23.07
2023-02-05T01:31:11.694Z,24.93
2023-02-05T01:33:39.490Z,25.20
2023-02-05T01:36:07.417Z,25.07
2023-02-05T01:38:35.069Z,21.83
2023-02-05T01:41:05.483Z,23.93
2023-02-05T01:43:33.008Z,25.37
2023-02-05T01:46:24.201Z,29.50
2023-02-05T01:48:53.483Z,25.37
2023-02-05T01:51:22.561Z,25.33
2023-02-05T01:53:50.533Z,22.43
2023-02-05T01:56:22.709Z,33.47
2023-02-05T01:58:56.622Z,24.30
2023-02-05T02:01:25.446Z,23.77
2023-02-05T02:03:55.129Z,25.07
2023-02-05T02:06:23.074Z,24.17
2023-02-05T02:08:51.334Z,22.57
2023-02-05T02:11:21.997Z,23.17
2023-02-05T02:13:51.520Z,29.80
2023-02-05T02:16:20.173Z,35.03
2023-02-05T02:18:48.589Z,32.87
2023-02-05T02:21:34.162Z,37.10
2023-02-05T02:24:14.304Z,37.50
2023-02-05T02:27:12.153Z,107.30
2023-02-05T02:29:47.914Z,59.17
2023-02-05T02:32:27.208Z,70.77
2023-02-05T02:35:03.777Z,91.10
2023-02-05T02:37:36.964Z,72.93
2023-02-05T02:40:17.067Z,64.30
2023-02-05T02:42:52.803Z,71.43
2023-02-05T02:45:22.145Z,102.77
2023-02-05T02:47:54.111Z,124.07
2023-02-05T02:50:35.090Z,138.03
2023-02-05T02:53:09.974Z,117.47
2023-02-05T02:55:40.008Z,118.30
2023-02-05T02:58:11.236Z,85.63
2023-02-05T03:00:40.908Z,84.20
2023-02-05T03:03:10.412Z,62.00
2023-02-05T03:05:38.901Z,42.63
2023-02-05T03:08:11.999Z,58.87
2023-02-05T03:10:47.496Z,72.23
2023-02-05T03:13:16.107Z,62.57
2023-02-05T03:15:49.890Z,56.53
2023-02-05T03:18:19.326Z,55.27
2023-02-05T03:20:50.539Z,49.80
2023-02-05T03:23:19.106Z,50.00
2023-02-05T03:25:46.688Z,47.93
2023-02-05T03:28:16.531Z,41.40
2023-02-05T03:31:02.559Z,46.47
2023-02-05T03:33:54.036Z,41.50
2023-02-05T03:36:52.126Z,40.87
2023-02-05T03:39:58.435Z,39.07
2023-02-05T03:42:38.072Z,38.13
2023-02-05T03:45:29.561Z,40.97
2023-02-05T03:47:59.172Z,43.37
2023-02-05T03:50:40.097Z,52.20
2023-02-05T03:53:31.550Z,36.60
2023-02-05T03:56:07.057Z,40.30
2023-02-05T03:58:40.451Z,45.37
2023-02-05T04:01:10.437Z,39.47
2023-02-05T04:03:39.591Z,40.63
2023-02-05T04:06:08.312Z,38.63
2023-02-05T04:08:36.616Z,36.33
2023-02-05T04:11:04.718Z,35.87
2023-02-05T04:13:33.874Z,32.50
2023-02-05T04:16:03.693Z,37.30
2023-02-05T04:18:31.405Z,36.17
2023-02-05T04:21:00.567Z,38.07
2023-02-05T04:23:30.009Z,64.57
2023-02-05T04:25:58.343Z,55.17
2023-02-05T04:28:35.630Z,49.93
2023-02-05T04:31:09.461Z,74.63
2023-02-05T04:33:38.869Z,89.20
2023-02-05T04:36:07.296Z,93.40
2023-02-05T04:38:35.614Z,93.50
2023-02-05T04:41:03.495Z,89.53
2023-02-05T04:43:30.989Z,98.10
2023-02-05T04:45:58.830Z,112.27
2023-02-05T04:48:26.424Z,97.27
2023-02-05T04:50:54.237Z,93.53
2023-02-05T04:53:21.734Z,80.07
2023-02-05T04:55:49.544Z,83.93
2023-02-05T04:58:17.056Z,82.00
2023-02-05T05:00:44.892Z,88.13
2023-02-05T05:03:12.408Z,92.97
2023-02-05T05:05:40.396Z,117.37
2023-02-05T05:08:07.930Z,125.70
2023-02-05T05:10:35.795Z,101.50
2023-02-05T05:13:03.354Z,115.47
2023-02-05T05:15:31.281Z,109.77
2023-02-05T05:17:58.833Z,127.10
2023-02-05T05:20:26.703Z,135.90
2023-02-05T05:22:54.240Z,114.60
2023-02-05T05:25:22.385Z,128.27
2023-02-05T05:27:50.329Z,92.73
2023-02-05T05:30:18.413Z,74.80
2023-02-05T05:32:45.990Z,62.90
2023-02-05T05:35:13.834Z,59.50
2023-02-05T05:37:41.364Z,52.63
2023-02-05T05:40:29.855Z,54.73
2023-02-05T05:43:16.128Z,46.00
2023-02-05T05:45:44.138Z,40.03
2023-02-05T05:48:11.753Z,34.33
2023-02-05T05:50:39.641Z,45.40
2023-02-05T05:53:07.311Z,40.37
2023-02-05T05:55:35.401Z,36.07
2023-02-05T05:58:03.115Z,40.97
2023-02-05T06:00:30.954Z,35.43
2023-02-05T06:02:58.517Z,44.33
2023-02-05T06:05:26.673Z,37.83
2023-02-05T06:07:54.220Z,41.23
2023-02-05T06:10:22.145Z,43.13
2023-02-05T06:12:50.617Z,40.00
2023-02-05T06:15:18.787Z,36.80
2023-02-05T06:17:46.531Z,41.63
2023-02-05T06:20:14.876Z,52.77
2023-02-05T06:22:42.498Z,40.40
2023-02-05T06:25:10.548Z,38.17
2023-02-05T06:27:38.230Z,36.03
2023-02-05T06:30:06.036Z,33.57
2023-02-05T06:32:33.606Z,30.37
2023-02-05T06:35:01.049Z,34.67
2023-02-05T06:37:46.302Z,34.37
2023-02-05T06:40:15.905Z,41.47
2023-02-05T06:42:43.569Z,36.00
2023-02-05T06:45:11.724Z,34.07
2023-02-05T06:47:39.566Z,40.67
2023-02-05T06:50:07.537Z,37.67
2023-02-05T06:52:34.763Z,40.27
2023-02-05T06:55:02.787Z,38.17
2023-02-05T06:57:31.955Z,40.40
2023-02-05T06:59:59.852Z,34.73
2023-02-05T07:02:27.616Z,37.77
2023-02-05T07:04:56.731Z,36.47
2023-02-05T07:07:24.290Z,34.90
2023-02-05T07:09:52.362Z,34.57
2023-02-05T07:12:20.242Z,36.83
2023-02-05T07:14:48.262Z,34.90
2023-02-05T07:17:15.862Z,33.67
2023-02-05T07:19:43.824Z,35.60
2023-02-05T07:22:13.951Z,34.37
2023-02-05T07:24:42.014Z,29.60
2023-02-05T07:27:09.580Z,35.93
2023-02-05T07:29:37.500Z,53.23
2023-02-05T07:32:05.312Z,39.60
2023-02-05T07:34:33.225Z,74.77
2023-02-05T07:37:00.912Z,42.57
2023-02-05T07:39:28.892Z,40.33
2023-02-05T07:41:56.611Z,30.00
2023-02-05T07:44:35.689Z,30.47
2023-02-05T07:47:03.263Z,31.37
2023-02-05T07:49:31.189Z,30.03
2023-02-05T07:51:59.054Z,33.80
2023-02-05T07:54:27.066Z,56.40
2023-02-05T07:56:55.472Z,48.37
2023-02-05T07:59:24.787Z,40.60
2023-02-05T08:01:52.760Z,39.27
2023-02-05T08:04:20.878Z,38.47
2023-02-05T08:06:48.649Z,28.80
2023-02-05T08:09:16.955Z,61.87
2023-02-05T08:11:44.677Z,201.27
2023-02-05T08:14:12.589Z,197.73
2023-02-05T08:16:40.133Z,205.33
2023-02-05T08:19:08.424Z,206.60
2023-02-05T08:21:36.083Z,214.10
2023-02-05T08:24:04.472Z,278.00
2023-02-05T08:26:32.022Z,193.43
2023-02-05T08:29:00.120Z,149.77
2023-02-05T08:31:29.129Z,117.73
2023-02-05T08:34:00.173Z,120.47
2023-02-05T08:36:28.504Z,102.23
2023-02-05T08:38:56.656Z,107.53
2023-02-05T08:41:24.259Z,117.70
2023-02-05T08:43:52.247Z,112.97
2023-02-05T08:46:22.135Z,123.40
2023-02-05T08:48:50.455Z,136.97
2023-02-05T08:51:19.631Z,144.30
2023-02-05T08:53:47.327Z,159.33
2023-02-05T08:56:16.016Z,149.47
2023-02-05T08:58:44.124Z,116.77
2023-02-05T09:01:14.198Z,103.63
2023-02-05T09:03:42.238Z,141.20
2023-02-05T09:06:12.686Z,149.93
2023-02-05T09:08:41.123Z,146.57
2023-02-05T09:11:09.271Z,129.73
2023-02-05T09:13:37.308Z,138.17
2023-02-05T09:16:05.172Z,143.27
2023-02-05T09:18:33.401Z,143.90
2023-02-05T09:21:01.217Z,107.03
2023-02-05T09:23:29.311Z,99.30
2023-02-05T09:25:59.708Z,119.73
2023-02-05T09:28:27.579Z,104.40
2023-02-05T09:30:55.475Z,112.27
2023-02-05T09:33:23.278Z,119.73
2023-02-05T09:35:50.948Z,119.23
2023-02-05T09:38:18.793Z,141.83
2023-02-05T09:40:51.945Z,163.20
2023-02-05T09:43:41.011Z,113.67
2023-02-05T09:46:44.941Z,93.13
2023-02-05T09:49:35.196Z,101.80
2023-02-05T09:52:24.252Z,118.53
2023-02-05T09:54:55.196Z,118.27
2023-02-05T09:57:33.768Z,111.60
2023-02-05T10:00:01.872Z,94.93
2023-02-05T10:02:37.406Z,84.03
2023-02-05T10:05:13.362Z,58.97
2023-02-05T10:07:44.171Z,75.23
2023-02-05T10:10:22.579Z,103.03
2023-02-05T10:13:01.883Z,63.40
2023-02-05T10:15:42.699Z,53.40
2023-02-05T10:18:54.085Z,57.93
2023-02-05T10:21:21.879Z,74.33
2023-02-05T10:24:07.123Z,61.37
2023-02-05T10:26:50.018Z,68.50
2023-02-05T10:29:17.717Z,58.67
2023-02-05T10:31:54.427Z,56.27
2023-02-05T10:34:25.069Z,59.27
2023-02-05T10:36:53.897Z,41.37
2023-02-05T10:39:23.442Z,44.43
2023-02-05T10:42:42.258Z,60.90
2023-02-05T10:45:12.462Z,43.30
2023-02-05T10:47:49.525Z,131.13
2023-02-05T10:50:43.421Z,43.13
2023-02-05T10:53:11.562Z,100.73
2023-02-05T10:55:40.281Z,58.93
2023-02-05T10:58:25.304Z,99.50
2023-02-05T11:00:53.234Z,73.73
2023-02-05T11:03:23.137Z,29.93
2023-02-05T11:05:51.244Z,36.13
2023-02-05T11:08:39.403Z,40.90
2023-02-05T11:11:08.078Z,37.57
2023-02-05T11:13:41.903Z,43.87
2023-02-05T11:16:11.080Z,29.58
2023-02-05T11:18:46.521Z,41.08
2023-02-05T11:21:14.247Z,46.47
2023-02-05T11:23:55.449Z,36.90
2023-02-05T11:26:24.349Z,40.33
2023-02-05T11:28:52.791Z,44.35
2023-02-05T11:31:20.813Z,51.80
2023-02-05T11:33:48.988Z,48.10
2023-02-05T11:36:23.545Z,39.13
2023-02-05T11:38:57.858Z,32.13
2023-02-05T11:41:49.572Z,31.07
2023-02-05T11:44:19.436Z,27.97
2023-02-05T11:46:47.361Z,25.20
2023-02-05T11:49:22.951Z,26.90
2023-02-05T11:51:53.527Z,31.15
2023-02-05T11:54:21.640Z,29.80
2023-02-05T11:57:07.713Z,27.20
2023-02-05T11:59:36.043Z,38.13
2023-02-05T12:02:31.190Z,34.92
2023-02-05T12:05:08.586Z,22.02
2023-02-05T12:07:48.734Z,26.05
2023-02-05T12:10:18.042Z,29.40
2023-02-05T12:13:24.646Z,20.45
2023-02-05T12:15:58.573Z,22.02
2023-02-05T12:18:31.500Z,30.05
2023-02-05T12:21:17.801Z,36.97
2023-02-05T12:24:28.446Z,25.00
2023-02-05T12:27:12.868Z,26.75
2023-02-05T12:29:41.681Z,30.83
2023-02-05T12:32:22.610Z,22.13
2023-02-05T12:34:50.210Z,30.55
2023-02-05T12:37:41.201Z,20.20
2023-02-05T12:40:27.346Z,12.45
2023-02-05T12:42:58.725Z,12.80
2023-02-05T12:45:30.180Z,13.15
2023-02-05T12:48:07.711Z,23.58
2023-02-05T12:50:53.931Z,33.88
2023-02-05T12:53:27.050Z,34.88
2023-02-05T12:56:13.390Z,28.52
2023-02-05T12:58:46.695Z,141.27
2023-02-05T13:01:20.847Z,40.13
2023-02-05T13:03:48.927Z,39.73
2023-02-05T13:06:40.484Z,26.63
2023-02-05T13:09:24.113Z,17.47
2023-02-05T13:12:01.772Z,26.70
2023-02-05T13:14:33.329Z,35.50
2023-02-05T13:17:07.564Z,35.67
2023-02-05T13:19:35.818Z,27.60
2023-02-05T13:22:29.359Z,30.40
2023-02-05T13:25:17.899Z,59.23
2023-02-05T13:28:08.288Z,35.80
2023-02-05T13:30:44.652Z,23.70
2023-02-05T13:33:12.340Z,20.10
2023-02-05T13:36:18.738Z,24.20
2023-02-05T13:38:47.208Z,23.87
2023-02-05T13:41:18.520Z,25.60
2023-02-05T13:43:54.832Z,32.90
2023-02-05T13:46:28.963Z,31.13
2023-02-05T13:49:15.328Z,44.90
2023-02-05T13:51:56.438Z,80.33
2023-02-05T13:54:27.526Z,38.57
2023-02-05T13:56:56.823Z,27.17
2023-02-05T13:59:43.726Z,23.47
2023-02-05T14:02:44.629Z,45.47
2023-02-05T14:05:13.816Z,67.30
2023-02-05T14:07:49.248Z,88.60
2023-02-05T14:10:37.683Z,98.37
2023-02-05T14:13:16.887Z,88.20
2023-02-05T14:15:45.279Z,104.10
2023-02-05T14:18:53.259Z,83.60
2023-02-05T14:21:46.402Z,59.90
2023-02-05T14:24:43.808Z,47.43
2023-02-05T14:27:34.196Z,87.60
2023-02-05T14:30:29.759Z,112.17
2023-02-05T14:33:01.711Z,128.10
2023-02-05T14:35:33.053Z,146.73
2023-02-05T14:38:02.793Z,160.93
2023-02-05T14:40:35.917Z,188.83
2023-02-05T14:43:18.224Z,176.90
2023-02-05T14:45:47.457Z,87.33
2023-02-05T14:48:20.172Z,64.13
2023-02-05T14:51:00.715Z,62.27
2023-02-05T14:53:30.074Z,54.63
2023-02-05T14:56:01.151Z,62.63
2023-02-05T14:58:35.481Z,76.50
2023-02-05T15:01:41.987Z,90.20
2023-02-05T15:04:19.916Z,124.57
2023-02-05T15:06:48.764Z,153.87
2023-02-05T15:09:34.396Z,149.37
2023-02-05T15:12:22.761Z,134.93
2023-02-05T15:14:57.339Z,172.17
2023-02-05T15:17:31.021Z,199.80
2023-02-05T15:20:20.622Z,252.10
2023-02-05T15:22:53.014Z,266.63
2023-02-05T15:25:31.276Z,212.67
2023-02-05T15:28:36.797Z,103.03
2023-02-05T15:31:10.294Z,70.10
2023-02-05T15:33:50.836Z,81.13
2023-02-05T15:36:32.258Z,87.60
2023-02-05T15:39:06.511Z,98.37
2023-02-05T15:41:36.187Z,90.03
2023-02-05T15:44:04.685Z,66.90
2023-02-05T15:46:34.302Z,50.70
2023-02-05T15:49:06.086Z,51.23
2023-02-05T15:51:34.996Z,49.50
2023-02-05T15:54:04.721Z,50.43
2023-02-05T15:56:37.685Z,49.47
2023-02-05T15:59:07.705Z,51.03
2023-02-05T16:01:39.467Z,53.03
2023-02-05T16:04:34.006Z,53.13
2023-02-05T16:07:02.944Z,50.50
2023-02-05T16:09:31.937Z,56.40
2023-02-05T16:12:11.583Z,161.50
2023-02-05T16:14:40.069Z,170.87
2023-02-05T16:17:20.180Z,166.30
2023-02-05T16:19:56.207Z,166.67
2023-02-05T16:22:33.337Z,153.23
2023-02-05T16:25:03.981Z,142.47
2023-02-05T16:27:36.728Z,139.00
2023-02-05T16:30:16.502Z,151.47
2023-02-05T16:32:44.354Z,148.83
2023-02-05T16:35:39.089Z,149.10
2023-02-05T16:38:09.279Z,172.47
2023-02-05T16:40:40.484Z,157.60
2023-02-05T16:43:17.363Z,197.47
2023-02-05T16:46:08.726Z,192.33
2023-02-05T16:48:41.791Z,166.43
2023-02-05T16:51:28.045Z,132.17
2023-02-05T16:53:56.013Z,118.50
2023-02-05T16:56:25.840Z,144.10
2023-02-05T16:58:58.442Z,147.43
2023-02-05T17:01:33.014Z,144.70
2023-02-05T17:04:03.089Z,120.40
2023-02-05T17:06:39.825Z,134.13
2023-02-05T17:09:08.109Z,132.23
2023-02-05T17:11:38.329Z,128.90
2023-02-05T17:14:12.313Z,111.60
2023-02-05T17:16:41.256Z,103.83
2023-02-05T17:19:26.854Z,119.97
2023-02-05T17:22:18.816Z,114.17
2023-02-05T17:24:52.354Z,165.13
2023-02-05T17:27:29.352Z,132.43
2023-02-05T17:29:57.909Z,114.17
2023-02-05T17:32:27.462Z,132.67
2023-02-05T17:34:55.511Z,183.60
2023-02-05T17:37:23.550Z,125.43
2023-02-05T17:39:51.622Z,105.20
2023-02-05T17:42:21.345Z,112.30
2023-02-05T17:44:50.669Z,86.27
2023-02-05T17:47:19.649Z,84.67
2023-02-05T17:49:47.817Z,85.37
2023-02-05T17:52:16.257Z,74.17
2023-02-05T17:54:46.325Z,48.27
2023-02-05T17:57:19.134Z,44.00
2023-02-05T17:59:47.158Z,52.17
2023-02-05T18:02:15.818Z,62.27
2023-02-05T18:04:45.044Z,51.47
2023-02-05T18:07:33.475Z,51.33
2023-02-05T18:10:01.666Z,49.30
2023-02-05T18:12:29.707Z,53.77
2023-02-05T18:14:57.399Z,47.13
2023-02-05T18:17:25.832Z,44.17
2023-02-05T18:19:53.766Z,39.63
2023-02-05T18:22:21.805Z,44.83
2023-02-05T18:24:49.493Z,39.97
2023-02-05T18:27:17.595Z,48.40
2023-02-05T18:29:47.443Z,47.37
2023-02-05T18:32:18.345Z,43.53
2023-02-05T18:34:46.054Z,39.97
2023-02-05T18:37:16.907Z,41.33
2023-02-05T18:39:48.026Z,42.60
2023-02-05T18:42:18.761Z,43.93
2023-02-05T18:44:48.770Z,40.67
2023-02-05T18:47:16.965Z,43.03
2023-02-05T18:49:47.079Z,43.37
2023-02-05T18:52:15.098Z,39.10
2023-02-05T18:54:44.054Z,39.23
2023-02-05T18:57:14.829Z,42.07
2023-02-05T18:59:44.596Z,42.63
2023-02-05T19:02:15.881Z,44.57
2023-02-05T19:04:45.581Z,45.37
2023-02-05T19:07:13.639Z,41.27
2023-02-05T19:09:41.457Z,41.43
2023-02-05T19:12:09.448Z,39.10
2023-02-05T19:14:40.526Z,37.30
2023-02-05T19:17:08.776Z,39.43
2023-02-05T19:19:36.796Z,43.80
2023-02-05T19:22:06.527Z,41.27
2023-02-05T19:24:36.192Z,36.77
2023-02-05T19:27:04.144Z,40.33
2023-02-05T19:29:38.072Z,40.73
2023-02-05T19:32:07.243Z,35.83
2023-02-05T19:34:43.461Z,39.47
2023-02-05T19:37:13.969Z,41.10
2023-02-05T19:39:41.712Z,32.97
2023-02-05T19:42:10.520Z,39.50
2023-02-05T19:44:38.387Z,38.77
2023-02-05T19:47:06.915Z,40.23
2023-02-05T19:49:34.793Z,37.90
2023-02-05T19:52:02.996Z,40.63
2023-02-05T19:54:30.731Z,49.93
2023-02-05T19:56:59.391Z,43.40
2023-02-05T19:59:27.849Z,43.80
2023-02-05T20:01:56.479Z,44.87
2023-02-05T20:04:26.049Z,44.43
2023-02-05T20:06:59.657Z,53.30
2023-02-05T20:09:28.486Z,53.17
2023-02-05T20:11:56.683Z,50.27
2023-02-05T20:14:25.998Z,44.33
2023-02-05T20:16:54.282Z,53.90
2023-02-05T20:19:22.426Z,56.67
2023-02-05T20:21:50.974Z,56.23
2023-02-05T20:24:18.959Z,58.70
2023-02-05T20:26:50.130Z,55.60
2023-02-05T20:29:39.871Z,54.63
2023-02-05T20:32:09.023Z,53.23
2023-02-05T20:34:39.523Z,60.53
2023-02-05T20:37:10.306Z,52.57
2023-02-05T20:39:42.147Z,54.73
2023-02-05T20:42:14.329Z,62.47
2023-02-05T20:44:45.355Z,67.03
2023-02-05T20:47:15.496Z,60.73
2023-02-05T20:49:46.791Z,71.03
2023-02-05T20:52:15.438Z,63.30
2023-02-05T20:54:44.511Z,64.67
2023-02-05T20:57:13.867Z,64.37
2023-02-05T20:59:42.029Z,61.87
2023-02-05T21:02:11.699Z,59.23
2023-02-05T21:04:40.448Z,60.47
2023-02-05T21:07:09.565Z,64.50
2023-02-05T21:09:41.129Z,56.33
2023-02-05T21:12:09.712Z,59.47
2023-02-05T21:14:39.149Z,57.90
2023-02-05T21:17:10.599Z,55.30
2023-02-05T21:19:39.531Z,57.77
2023-02-05T21:22:07.783Z,61.10
2023-02-05T21:24:35.853Z,57.43
2023-02-05T21:27:04.339Z,56.67
2023-02-05T21:29:32.371Z,60.90
2023-02-05T21:32:00.474Z,57.67
2023-02-05T21:34:29.827Z,54.30
2023-02-05T21:36:58.034Z,63.10
2023-02-05T21:39:26.285Z,56.53
2023-02-05T21:41:54.560Z,62.27
2023-02-05T21:44:22.505Z,62.13
2023-02-05T21:46:50.840Z,69.23
2023-02-05T21:49:18.698Z,65.43
2023-02-05T21:51:48.578Z,59.40
2023-02-05T21:54:16.646Z,58.80
2023-02-05T21:56:44.620Z,64.30
2023-02-05T21:59:13.065Z,61.00
2023-02-05T22:01:42.466Z,62.90
2023-02-05T22:04:14.616Z,59.17
2023-02-05T22:06:42.982Z,61.23
2023-02-05T22:09:11.949Z,61.07
2023-02-05T22:11:40.729Z,55.07
2023-02-05T22:14:10.293Z,59.83
2023-02-05T22:16:39.035Z,61.63
2023-02-05T22:19:07.807Z,57.90
2023-02-05T22:21:40.868Z,65.87
2023-02-05T22:24:09.765Z,75.30
2023-02-05T22:26:38.930Z,63.87
2023-02-05T22:29:07.452Z,65.83
2023-02-05T22:31:35.888Z,69.60
2023-02-05T22:34:04.219Z,63.20
2023-02-05T22:36:33.114Z,62.23
2023-02-05T22:39:01.193Z,66.57
2023-02-05T22:41:31.578Z,64.60
2023-02-05T22:43:59.903Z,65.63
2023-02-05T22:46:29.613Z,62.57
2023-02-05T22:48:58.715Z,68.27
2023-02-05T22:51:29.670Z,59.13
2023-02-05T22:53:57.375Z,55.17
2023-02-05T22:56:25.458Z,59.77
2023-02-05T22:58:53.889Z,62.40
2023-02-05T23:01:25.255Z,62.57
2023-02-05T23:03:53.363Z,59.83
2023-02-05T23:06:24.581Z,60.23
2023-02-05T23:08:53.498Z,64.20
2023-02-05T23:11:21.875Z,58.63
2023-02-05T23:13:49.588Z,61.67
2023-02-05T23:16:22.041Z,61.17
2023-02-05T23:18:50.076Z,67.27
2023-02-05T23:21:19.602Z,60.53
2023-02-05T23:23:47.281Z,59.77
2023-02-05T23:26:17.308Z,65.90
2023-02-05T23:28:45.450Z,60.07
2023-02-05T23:31:13.661Z,61.87
2023-02-05T23:33:41.453Z,59.20
2023-02-05T23:36:10.121Z,57.07
2023-02-05T23:38:37.947Z,54.53
2023-02-05T23:41:06.494Z,56.60
2023-02-05T23:43:34.876Z,64.23
2023-02-05T23:46:03.196Z,58.77
2023-02-05T23:48:31.033Z,62.50
2023-02-05T23:50:59.037Z,59.70
2023-02-05T23:53:27.263Z,67.90
2023-02-05T23:55:55.684Z,69.27
2023-02-05T23:58:26.142Z,67.63
